sensor_id;sensor_type;location;lat;lon;timestamp;temperature;humidity
41926;DHT22;27615;51.826;5.692;2022-11-21T00:00:43;4.50;99.90
41926;DHT22;27615;51.826;5.692;2022-11-21T00:03:09;4.50;99.90
41926;DHT22;27615;51.826;5.692;2022-11-21T00:05:38;4.50;99.90
41926;DHT22;27615;51.826;5.692;2022-11-21T00:08:05;4.50;99.90
41926;DHT22;27615;51.826;5.692;2022-11-21T00:10:32;4.50;99.90
41926;DHT22;27615;51.826;5.692;2022-11-21T00:12:57;4.50;99.90
41926;DHT22;27615;51.826;5.692;2022-11-21T00:15:24;4.60;99.90
41926;DHT22;27615;51.826;5.692;2022-11-21T00:17:50;4.60;99.90
41926;DHT22;27615;51.826;5.692;2022-11-21T00:20:18;4.60;99.90
41926;DHT22;27615;51.826;5.692;2022-11-21T00:22:44;4.60;99.90
41926;DHT22;27615;51.826;5.692;2022-11-21T00:25:10;4.60;99.90
41926;DHT22;27615;51.826;5.692;2022-11-21T00:27:36;4.60;99.90
41926;DHT22;27615;51.826;5.692;2022-11-21T00:30:02;4.50;99.90
41926;DHT22;27615;51.826;5.692;2022-11-21T00:32:28;4.50;99.90
41926;DHT22;27615;51.826;5.692;2022-11-21T00:34:53;4.50;99.90
41926;DHT22;27615;51.826;5.692;2022-11-21T00:37:18;4.50;99.90
41926;DHT22;27615;51.826;5.692;2022-11-21T00:39:44;4.50;99.90
41926;DHT22;27615;51.826;5.692;2022-11-21T00:42:09;4.50;99.90
41926;DHT22;27615;51.826;5.692;2022-11-21T00:44:35;4.50;99.90
41926;DHT22;27615;51.826;5.692;2022-11-21T00:47:01;4.60;99.90
41926;DHT22;27615;51.826;5.692;2022-11-21T00:49:26;4.60;99.90
41926;DHT22;27615;51.826;5.692;2022-11-21T00:51:52;4.60;99.90
41926;DHT22;27615;51.826;5.692;2022-11-21T00:54:17;4.60;99.90
41926;DHT22;27615;51.826;5.692;2022-11-21T00:56:43;4.50;99.90
41926;DHT22;27615;51.826;5.692;2022-11-21T00:59:08;4.50;99.90
41926;DHT22;27615;51.826;5.692;2022-11-21T01:01:34;4.50;99.90
41926;DHT22;27615;51.826;5.692;2022-11-21T01:03:59;4.50;99.90
41926;DHT22;27615;51.826;5.692;2022-11-21T01:06:25;4.50;99.90
41926;DHT22;27615;51.826;5.692;2022-11-21T01:08:50;4.40;99.90
41926;DHT22;27615;51.826;5.692;2022-11-21T01:11:18;4.40;99.90
41926;DHT22;27615;51.826;5.692;2022-11-21T01:13:44;4.40;99.90
41926;DHT22;27615;51.826;5.692;2022-11-21T01:16:12;4.40;99.90
41926;DHT22;27615;51.826;5.692;2022-11-21T01:18:39;4.50;99.90
41926;DHT22;27615;51.826;5.692;2022-11-21T01:21:07;4.50;99.90
41926;DHT22;27615;51.826;5.692;2022-11-21T01:23:33;4.50;99.90
41926;DHT22;27615;51.826;5.692;2022-11-21T01:26:07;4.50;99.90
41926;DHT22;27615;51.826;5.692;2022-11-21T01:28:33;4.50;99.90
41926;DHT22;27615;51.826;5.692;2022-11-21T01:31:10;4.50;99.90
41926;DHT22;27615;51.826;5.692;2022-11-21T01:33:37;4.40;99.90
41926;DHT22;27615;51.826;5.692;2022-11-21T01:36:14;4.40;99.90
41926;DHT22;27615;51.826;5.692;2022-11-21T01:38:41;4.40;99.90
41926;DHT22;27615;51.826;5.692;2022-11-21T01:41:09;4.40;99.90
41926;DHT22;27615;51.826;5.692;2022-11-21T01:43:35;4.40;99.90
41926;DHT22;27615;51.826;5.692;2022-11-21T01:46:10;4.40;99.90
41926;DHT22;27615;51.826;5.692;2022-11-21T01:57:21;4.40;99.90
41926;DHT22;27615;51.826;5.692;2022-11-21T02:00:05;4.40;99.90
41926;DHT22;27615;51.826;5.692;2022-11-21T02:02:34;4.40;99.90
41926;DHT22;27615;51.826;5.692;2022-11-21T02:05:01;4.30;99.90
41926;DHT22;27615;51.826;5.692;2022-11-21T02:07:32;4.30;99.90
41926;DHT22;27615;51.826;5.692;2022-11-21T02:10:01;4.30;99.90
41926;DHT22;27615;51.826;5.692;2022-11-21T02:12:57;4.30;99.90
41926;DHT22;27615;51.826;5.692;2022-11-21T02:15:25;4.40;99.90
41926;DHT22;27615;51.826;5.692;2022-11-21T02:17:51;4.30;99.90
41926;DHT22;27615;51.826;5.692;2022-11-21T02:20:18;4.40;99.90
41926;DHT22;27615;51.826;5.692;2022-11-21T02:25:39;4.30;99.90
41926;DHT22;27615;51.826;5.692;2022-11-21T02:28:08;4.30;99.90
41926;DHT22;27615;51.826;5.692;2022-11-21T02:30:37;4.20;99.90
41926;DHT22;27615;51.826;5.692;2022-11-21T02:33:04;4.20;99.90
41926;DHT22;27615;51.826;5.692;2022-11-21T02:35:30;4.20;99.90
41926;DHT22;27615;51.826;5.692;2022-11-21T02:37:59;4.20;99.90
41926;DHT22;27615;51.826;5.692;2022-11-21T02:40:30;4.20;99.90
41926;DHT22;27615;51.826;5.692;2022-11-21T02:43:16;4.20;99.90
41926;DHT22;27615;51.826;5.692;2022-11-21T02:45:45;4.20;99.90
41926;DHT22;27615;51.826;5.692;2022-11-21T02:48:11;4.20;99.90
41926;DHT22;27615;51.826;5.692;2022-11-21T02:50:38;4.30;99.90
41926;DHT22;27615;51.826;5.692;2022-11-21T02:53:06;4.30;99.90
41926;DHT22;27615;51.826;5.692;2022-11-21T02:55:32;4.30;99.90
41926;DHT22;27615;51.826;5.692;2022-11-21T02:57:58;4.30;99.90
41926;DHT22;27615;51.826;5.692;2022-11-21T03:00:24;4.30;99.90
41926;DHT22;27615;51.826;5.692;2022-11-21T03:02:50;4.40;99.90
41926;DHT22;27615;51.826;5.692;2022-11-21T03:05:17;4.40;99.90
41926;DHT22;27615;51.826;5.692;2022-11-21T03:07:44;4.40;99.90
41926;DHT22;27615;51.826;5.692;2022-11-21T03:10:10;4.40;99.90
41926;DHT22;27615;51.826;5.692;2022-11-21T03:12:37;4.40;99.90
41926;DHT22;27615;51.826;5.692;2022-11-21T03:15:04;4.40;99.90
41926;DHT22;27615;51.826;5.692;2022-11-21T03:17:30;4.30;99.90
41926;DHT22;27615;51.826;5.692;2022-11-21T03:19:55;4.30;99.90
41926;DHT22;27615;51.826;5.692;2022-11-21T03:22:21;4.30;99.90
41926;DHT22;27615;51.826;5.692;2022-11-21T03:24:46;4.30;99.90
41926;DHT22;27615;51.826;5.692;2022-11-21T03:27:12;4.30;99.90
41926;DHT22;27615;51.826;5.692;2022-11-21T03:29:37;4.30;99.90
41926;DHT22;27615;51.826;5.692;2022-11-21T03:32:03;4.30;99.90
41926;DHT22;27615;51.826;5.692;2022-11-21T03:34:29;4.30;99.90
41926;DHT22;27615;51.826;5.692;2022-11-21T03:36:54;4.30;99.90
41926;DHT22;27615;51.826;5.692;2022-11-21T03:39:20;4.30;99.90
41926;DHT22;27615;51.826;5.692;2022-11-21T03:41:45;4.30;99.90
41926;DHT22;27615;51.826;5.692;2022-11-21T03:44:11;4.30;99.90
41926;DHT22;27615;51.826;5.692;2022-11-21T03:46:39;4.40;99.90
41926;DHT22;27615;51.826;5.692;2022-11-21T03:49:06;4.30;99.90
41926;DHT22;27615;51.826;5.692;2022-11-21T03:51:32;4.20;99.90
41926;DHT22;27615;51.826;5.692;2022-11-21T03:53:57;4.00;99.90
41926;DHT22;27615;51.826;5.692;2022-11-21T03:56:23;3.80;99.90
41926;DHT22;27615;51.826;5.692;2022-11-21T03:58:49;3.70;99.90
41926;DHT22;27615;51.826;5.692;2022-11-21T04:01:15;3.70;99.90
41926;DHT22;27615;51.826;5.692;2022-11-21T04:03:42;3.70;99.90
41926;DHT22;27615;51.826;5.692;2022-11-21T04:06:09;3.60;99.90
41926;DHT22;27615;51.826;5.692;2022-11-21T04:08:35;3.70;99.90
41926;DHT22;27615;51.826;5.692;2022-11-21T04:11:00;3.70;99.90
41926;DHT22;27615;51.826;5.692;2022-11-21T04:13:26;3.60;99.90
41926;DHT22;27615;51.826;5.692;2022-11-21T04:15:51;3.60;99.90
41926;DHT22;27615;51.826;5.692;2022-11-21T04:18:17;3.50;99.90
41926;DHT22;27615;51.826;5.692;2022-11-21T04:20:43;3.50;99.90
41926;DHT22;27615;51.826;5.692;2022-11-21T04:23:08;3.40;99.90
41926;DHT22;27615;51.826;5.692;2022-11-21T04:25:34;3.40;99.90
41926;DHT22;27615;51.826;5.692;2022-11-21T04:28:00;3.30;99.90
41926;DHT22;27615;51.826;5.692;2022-11-21T04:30:27;3.40;99.90
41926;DHT22;27615;51.826;5.692;2022-11-21T04:32:53;3.40;99.90
41926;DHT22;27615;51.826;5.692;2022-11-21T04:35:20;3.40;99.90
41926;DHT22;27615;51.826;5.692;2022-11-21T04:37:46;3.40;99.90
41926;DHT22;27615;51.826;5.692;2022-11-21T04:40:12;3.30;99.90
41926;DHT22;27615;51.826;5.692;2022-11-21T04:42:45;3.30;99.90
41926;DHT22;27615;51.826;5.692;2022-11-21T04:45:13;3.30;99.90
41926;DHT22;27615;51.826;5.692;2022-11-21T04:47:41;3.30;99.90
41926;DHT22;27615;51.826;5.692;2022-11-21T04:50:07;3.30;99.90
41926;DHT22;27615;51.826;5.692;2022-11-21T04:52:33;3.30;99.90
41926;DHT22;27615;51.826;5.692;2022-11-21T04:54:58;3.40;99.90
41926;DHT22;27615;51.826;5.692;2022-11-21T04:57:26;3.40;99.90
41926;DHT22;27615;51.826;5.692;2022-11-21T04:59:51;3.40;99.90
41926;DHT22;27615;51.826;5.692;2022-11-21T05:02:17;3.50;99.90
41926;DHT22;27615;51.826;5.692;2022-11-21T05:04:42;3.50;99.90
41926;DHT22;27615;51.826;5.692;2022-11-21T05:07:08;3.50;99.90
41926;DHT22;27615;51.826;5.692;2022-11-21T05:09:33;3.50;99.90
41926;DHT22;27615;51.826;5.692;2022-11-21T05:11:59;3.50;99.90
41926;DHT22;27615;51.826;5.692;2022-11-21T05:14:43;3.50;99.90
41926;DHT22;27615;51.826;5.692;2022-11-21T05:17:08;3.50;99.90
41926;DHT22;27615;51.826;5.692;2022-11-21T05:19:34;3.50;99.90
41926;DHT22;27615;51.826;5.692;2022-11-21T05:21:59;3.50;99.90
41926;DHT22;27615;51.826;5.692;2022-11-21T05:24:25;3.50;99.90
41926;DHT22;27615;51.826;5.692;2022-11-21T05:26:50;3.40;99.90
41926;DHT22;27615;51.826;5.692;2022-11-21T05:29:16;3.40;99.90
41926;DHT22;27615;51.826;5.692;2022-11-21T05:31:41;3.50;99.90
41926;DHT22;27615;51.826;5.692;2022-11-21T05:34:07;3.60;99.90
41926;DHT22;27615;51.826;5.692;2022-11-21T05:36:33;3.60;99.90
41926;DHT22;27615;51.826;5.692;2022-11-21T05:38:58;3.60;99.90
41926;DHT22;27615;51.826;5.692;2022-11-21T05:41:24;3.60;99.90
41926;DHT22;27615;51.826;5.692;2022-11-21T05:43:49;3.60;99.90
41926;DHT22;27615;51.826;5.692;2022-11-21T05:46:17;3.70;99.90
41926;DHT22;27615;51.826;5.692;2022-11-21T05:48:42;3.70;99.90
41926;DHT22;27615;51.826;5.692;2022-11-21T05:51:10;3.80;99.90
41926;DHT22;27615;51.826;5.692;2022-11-21T05:53:36;3.80;99.90
41926;DHT22;27615;51.826;5.692;2022-11-21T05:56:06;3.90;99.90
41926;DHT22;27615;51.826;5.692;2022-11-21T05:58:33;3.90;99.90
41926;DHT22;27615;51.826;5.692;2022-11-21T06:00:59;4.00;99.90
41926;DHT22;27615;51.826;5.692;2022-11-21T06:03:26;4.00;99.90
41926;DHT22;27615;51.826;5.692;2022-11-21T06:08:28;4.00;99.90
41926;DHT22;27615;51.826;5.692;2022-11-21T06:10:54;3.90;99.90
41926;DHT22;27615;51.826;5.692;2022-11-21T06:13:20;3.80;99.90
41926;DHT22;27615;51.826;5.692;2022-11-21T06:16:00;3.90;99.90
41926;DHT22;27615;51.826;5.692;2022-11-21T06:18:26;3.90;99.90
41926;DHT22;27615;51.826;5.692;2022-11-21T06:20:53;3.90;99.90
41926;DHT22;27615;51.826;5.692;2022-11-21T06:23:18;4.00;99.90
41926;DHT22;27615;51.826;5.692;2022-11-21T06:25:44;4.00;99.90
41926;DHT22;27615;51.826;5.692;2022-11-21T06:28:10;4.00;99.90
41926;DHT22;27615;51.826;5.692;2022-11-21T06:30:37;4.00;99.90
41926;DHT22;27615;51.826;5.692;2022-11-21T06:33:04;4.00;99.90
41926;DHT22;27615;51.826;5.692;2022-11-21T06:35:30;4.10;99.90
41926;DHT22;27615;51.826;5.692;2022-11-21T06:37:56;4.10;99.90
41926;DHT22;27615;51.826;5.692;2022-11-21T06:40:22;4.00;99.90
41926;DHT22;27615;51.826;5.692;2022-11-21T06:42:48;3.90;99.90
41926;DHT22;27615;51.826;5.692;2022-11-21T06:45:13;3.90;99.90
41926;DHT22;27615;51.826;5.692;2022-11-21T06:47:39;3.80;99.90
41926;DHT22;27615;51.826;5.692;2022-11-21T06:50:05;3.80;99.90
41926;DHT22;27615;51.826;5.692;2022-11-21T06:52:34;3.70;99.90
41926;DHT22;27615;51.826;5.692;2022-11-21T06:54:59;3.70;99.90
41926;DHT22;27615;51.826;5.692;2022-11-21T06:57:25;3.70;99.90
41926;DHT22;27615;51.826;5.692;2022-11-21T06:59:50;3.70;99.90
41926;DHT22;27615;51.826;5.692;2022-11-21T07:02:16;3.70;99.90
41926;DHT22;27615;51.826;5.692;2022-11-21T07:04:41;3.80;99.90
41926;DHT22;27615;51.826;5.692;2022-11-21T07:07:07;3.80;99.90
41926;DHT22;27615;51.826;5.692;2022-11-21T07:09:32;3.80;99.90
41926;DHT22;27615;51.826;5.692;2022-11-21T07:12:00;3.70;99.90
41926;DHT22;27615;51.826;5.692;2022-11-21T07:14:46;3.70;99.90
41926;DHT22;27615;51.826;5.692;2022-11-21T07:17:12;3.70;99.90
41926;DHT22;27615;51.826;5.692;2022-11-21T07:19:38;3.80;99.90
41926;DHT22;27615;51.826;5.692;2022-11-21T07:22:05;3.80;99.90
41926;DHT22;27615;51.826;5.692;2022-11-21T07:24:30;3.90;99.90
41926;DHT22;27615;51.826;5.692;2022-11-21T07:26:56;3.80;99.90
41926;DHT22;27615;51.826;5.692;2022-11-21T07:29:21;3.80;99.90
41926;DHT22;27615;51.826;5.692;2022-11-21T07:31:47;3.80;99.90
41926;DHT22;27615;51.826;5.692;2022-11-21T07:34:12;3.90;99.90
41926;DHT22;27615;51.826;5.692;2022-11-21T07:36:38;3.90;99.90
41926;DHT22;27615;51.826;5.692;2022-11-21T07:39:03;3.90;99.90
41926;DHT22;27615;51.826;5.692;2022-11-21T07:41:31;3.90;99.90
41926;DHT22;27615;51.826;5.692;2022-11-21T07:43:56;3.90;99.90
41926;DHT22;27615;51.826;5.692;2022-11-21T07:46:22;3.90;99.90
41926;DHT22;27615;51.826;5.692;2022-11-21T07:48:47;4.00;99.90
41926;DHT22;27615;51.826;5.692;2022-11-21T07:51:13;4.00;99.90
41926;DHT22;27615;51.826;5.692;2022-11-21T07:53:38;4.00;99.90
41926;DHT22;27615;51.826;5.692;2022-11-21T07:56:04;4.10;99.90
41926;DHT22;27615;51.826;5.692;2022-11-21T07:58:29;4.10;99.90
41926;DHT22;27615;51.826;5.692;2022-11-21T08:00:55;4.20;99.90
41926;DHT22;27615;51.826;5.692;2022-11-21T08:03:20;4.30;99.90
41926;DHT22;27615;51.826;5.692;2022-11-21T08:05:47;4.30;99.90
41926;DHT22;27615;51.826;5.692;2022-11-21T08:08:13;4.30;99.90
41926;DHT22;27615;51.826;5.692;2022-11-21T08:10:41;4.30;99.90
41926;DHT22;27615;51.826;5.692;2022-11-21T08:13:08;4.40;99.90
41926;DHT22;27615;51.826;5.692;2022-11-21T08:15:35;4.40;99.90
41926;DHT22;27615;51.826;5.692;2022-11-21T08:18:11;4.40;99.90
41926;DHT22;27615;51.826;5.692;2022-11-21T08:20:36;4.40;99.90
41926;DHT22;27615;51.826;5.692;2022-11-21T08:23:02;4.50;99.90
41926;DHT22;27615;51.826;5.692;2022-11-21T08:25:28;4.50;99.90
41926;DHT22;27615;51.826;5.692;2022-11-21T08:27:57;4.60;99.90
41926;DHT22;27615;51.826;5.692;2022-11-21T08:30:23;4.60;99.90
41926;DHT22;27615;51.826;5.692;2022-11-21T08:32:49;4.60;99.90
41926;DHT22;27615;51.826;5.692;2022-11-21T08:35:15;4.60;99.90
41926;DHT22;27615;51.826;5.692;2022-11-21T08:37:40;4.60;99.90
41926;DHT22;27615;51.826;5.692;2022-11-21T08:40:06;4.60;99.90
41926;DHT22;27615;51.826;5.692;2022-11-21T08:42:32;4.60;99.90
41926;DHT22;27615;51.826;5.692;2022-11-21T08:44:57;4.60;99.90
41926;DHT22;27615;51.826;5.692;2022-11-21T08:47:23;4.60;99.90
41926;DHT22;27615;51.826;5.692;2022-11-21T08:49:48;4.60;99.90
41926;DHT22;27615;51.826;5.692;2022-11-21T08:52:14;4.60;99.90
41926;DHT22;27615;51.826;5.692;2022-11-21T08:54:41;4.70;99.90
41926;DHT22;27615;51.826;5.692;2022-11-21T08:57:08;4.70;99.90
41926;DHT22;27615;51.826;5.692;2022-11-21T08:59:34;4.70;99.90
41926;DHT22;27615;51.826;5.692;2022-11-21T09:02:00;4.70;99.90
41926;DHT22;27615;51.826;5.692;2022-11-21T09:04:25;4.70;99.90
41926;DHT22;27615;51.826;5.692;2022-11-21T09:06:51;4.70;99.90
41926;DHT22;27615;51.826;5.692;2022-11-21T09:09:16;4.80;99.90
41926;DHT22;27615;51.826;5.692;2022-11-21T09:11:42;4.90;99.90
41926;DHT22;27615;51.826;5.692;2022-11-21T09:14:07;4.90;99.90
41926;DHT22;27615;51.826;5.692;2022-11-21T09:16:51;5.00;99.90
41926;DHT22;27615;51.826;5.692;2022-11-21T09:19:35;5.10;99.90
41926;DHT22;27615;51.826;5.692;2022-11-21T09:22:01;5.30;99.90
41926;DHT22;27615;51.826;5.692;2022-11-21T09:24:26;5.40;99.90
41926;DHT22;27615;51.826;5.692;2022-11-21T09:26:52;5.60;99.90
41926;DHT22;27615;51.826;5.692;2022-11-21T09:29:17;5.80;99.90
41926;DHT22;27615;51.826;5.692;2022-11-21T09:31:43;6.00;99.90
41926;DHT22;27615;51.826;5.692;2022-11-21T09:34:09;6.30;99.90
41926;DHT22;27615;51.826;5.692;2022-11-21T09:36:35;6.50;99.90
41926;DHT22;27615;51.826;5.692;2022-11-21T09:39:01;6.50;99.90
41926;DHT22;27615;51.826;5.692;2022-11-21T09:41:35;6.50;99.90
41926;DHT22;27615;51.826;5.692;2022-11-21T09:47:06;6.40;99.90
41926;DHT22;27615;51.826;5.692;2022-11-21T09:49:40;6.30;99.90
41926;DHT22;27615;51.826;5.692;2022-11-21T09:52:07;6.30;99.90
41926;DHT22;27615;51.826;5.692;2022-11-21T09:54:40;6.40;99.90
41926;DHT22;27615;51.826;5.692;2022-11-21T09:57:09;6.40;99.90
41926;DHT22;27615;51.826;5.692;2022-11-21T09:59:36;6.30;99.90
41926;DHT22;27615;51.826;5.692;2022-11-21T10:02:13;6.20;99.90
41926;DHT22;27615;51.826;5.692;2022-11-21T10:04:39;6.20;99.90
41926;DHT22;27615;51.826;5.692;2022-11-21T10:12:32;6.30;99.90
41926;DHT22;27615;51.826;5.692;2022-11-21T10:25:36;7.50;99.90
41926;DHT22;27615;51.826;5.692;2022-11-21T10:28:21;7.40;99.90
41926;DHT22;27615;51.826;5.692;2022-11-21T10:30:52;7.40;99.90
41926;DHT22;27615;51.826;5.692;2022-11-21T10:33:39;7.30;99.90
41926;DHT22;27615;51.826;5.692;2022-11-21T10:36:32;7.40;99.90
41926;DHT22;27615;51.826;5.692;2022-11-21T10:39:05;7.50;99.90
41926;DHT22;27615;51.826;5.692;2022-11-21T10:44:37;7.50;99.90
41926;DHT22;27615;51.826;5.692;2022-11-21T10:47:24;7.60;99.90
41926;DHT22;27615;51.826;5.692;2022-11-21T10:52:46;8.40;99.90
41926;DHT22;27615;51.826;5.692;2022-11-21T10:55:14;8.60;99.90
41926;DHT22;27615;51.826;5.692;2022-11-21T10:57:46;9.10;99.90
41926;DHT22;27615;51.826;5.692;2022-11-21T11:02:58;9.60;99.90
41926;DHT22;27615;51.826;5.692;2022-11-21T11:05:30;9.60;99.90
41926;DHT22;27615;51.826;5.692;2022-11-21T11:10:45;9.70;99.90
41926;DHT22;27615;51.826;5.692;2022-11-21T11:13:24;9.70;99.90
41926;DHT22;27615;51.826;5.692;2022-11-21T11:16:03;9.50;99.90
41926;DHT22;27615;51.826;5.692;2022-11-21T11:18:31;9.40;99.90
41926;DHT22;27615;51.826;5.692;2022-11-21T11:21:17;9.60;99.90
41926;DHT22;27615;51.826;5.692;2022-11-21T11:23:43;9.80;99.90
41926;DHT22;27615;51.826;5.692;2022-11-21T11:29:21;10.10;99.90
41926;DHT22;27615;51.826;5.692;2022-11-21T11:32:02;10.30;99.90
41926;DHT22;27615;51.826;5.692;2022-11-21T11:34:40;10.30;99.90
41926;DHT22;27615;51.826;5.692;2022-11-21T11:37:33;10.20;99.90
41926;DHT22;27615;51.826;5.692;2022-11-21T11:42:57;10.60;99.90
41926;DHT22;27615;51.826;5.692;2022-11-21T11:46:13;11.20;99.90
41926;DHT22;27615;51.826;5.692;2022-11-21T11:49:03;11.90;99.90
41926;DHT22;27615;51.826;5.692;2022-11-21T11:51:32;13.00;99.90
41926;DHT22;27615;51.826;5.692;2022-11-21T11:54:07;14.20;98.10
41926;DHT22;27615;51.826;5.692;2022-11-21T11:56:37;15.00;94.70
41926;DHT22;27615;51.826;5.692;2022-11-21T12:15:03;15.20;86.40
41926;DHT22;27615;51.826;5.692;2022-11-21T12:26:05;14.60;85.70
41926;DHT22;27615;51.826;5.692;2022-11-21T12:28:57;14.50;84.80
41926;DHT22;27615;51.826;5.692;2022-11-21T12:34:32;14.50;84.90
41926;DHT22;27615;51.826;5.692;2022-11-21T12:43:23;13.70;87.00
41926;DHT22;27615;51.826;5.692;2022-11-21T12:46:23;13.20;88.20
41926;DHT22;27615;51.826;5.692;2022-11-21T12:51:55;12.60;90.80
41926;DHT22;27615;51.826;5.692;2022-11-21T12:55:46;12.30;91.00
41926;DHT22;27615;51.826;5.692;2022-11-21T13:00:33;11.50;93.10
41926;DHT22;27615;51.826;5.692;2022-11-21T13:05:30;11.20;94.50
41926;DHT22;27615;51.826;5.692;2022-11-21T13:08:15;11.10;94.80
41926;DHT22;27615;51.826;5.692;2022-11-21T13:10:53;11.00;95.50
41926;DHT22;27615;51.826;5.692;2022-11-21T13:13:41;10.90;95.90
41926;DHT22;27615;51.826;5.692;2022-11-21T13:16:15;10.80;96.20
41926;DHT22;27615;51.826;5.692;2022-11-21T13:18:43;10.80;96.70
41926;DHT22;27615;51.826;5.692;2022-11-21T13:21:43;10.70;96.90
41926;DHT22;27615;51.826;5.692;2022-11-21T13:24:09;10.70;97.40
41926;DHT22;27615;51.826;5.692;2022-11-21T13:31:32;10.50;98.00
41926;DHT22;27615;51.826;5.692;2022-11-21T13:34:00;10.50;98.30
41926;DHT22;27615;51.826;5.692;2022-11-21T13:47:00;10.50;98.00
41926;DHT22;27615;51.826;5.692;2022-11-21T13:52:04;10.60;98.20
41926;DHT22;27615;51.826;5.692;2022-11-21T13:57:48;10.70;98.20
41926;DHT22;27615;51.826;5.692;2022-11-21T14:00:37;10.60;98.20
41926;DHT22;27615;51.826;5.692;2022-11-21T14:06:21;10.40;98.90
41926;DHT22;27615;51.826;5.692;2022-11-21T14:09:17;10.40;99.10
41926;DHT22;27615;51.826;5.692;2022-11-21T14:17:32;10.10;99.60
41926;DHT22;27615;51.826;5.692;2022-11-21T14:20:06;10.10;99.90
41926;DHT22;27615;51.826;5.692;2022-11-21T14:23:00;10.20;99.90
41926;DHT22;27615;51.826;5.692;2022-11-21T14:25:44;10.30;99.70
41926;DHT22;27615;51.826;5.692;2022-11-21T14:28:30;10.10;99.50
41926;DHT22;27615;51.826;5.692;2022-11-21T14:33:31;9.60;99.90
41926;DHT22;27615;51.826;5.692;2022-11-21T14:38:30;9.40;99.90
41926;DHT22;27615;51.826;5.692;2022-11-21T14:43:48;9.20;99.90
41926;DHT22;27615;51.826;5.692;2022-11-21T14:46:21;9.00;99.90
41926;DHT22;27615;51.826;5.692;2022-11-21T14:48:46;8.90;99.90
41926;DHT22;27615;51.826;5.692;2022-11-21T14:51:15;8.70;99.90
41926;DHT22;27615;51.826;5.692;2022-11-21T14:53:42;8.60;99.90
41926;DHT22;27615;51.826;5.692;2022-11-21T14:56:21;8.50;99.90
41926;DHT22;27615;51.826;5.692;2022-11-21T14:58:47;8.50;99.90
41926;DHT22;27615;51.826;5.692;2022-11-21T15:01:26;8.40;99.90
41926;DHT22;27615;51.826;5.692;2022-11-21T15:03:56;8.40;99.90
41926;DHT22;27615;51.826;5.692;2022-11-21T15:06:22;8.30;99.90
41926;DHT22;27615;51.826;5.692;2022-11-21T15:08:49;8.30;99.90
41926;DHT22;27615;51.826;5.692;2022-11-21T15:11:16;8.30;99.90
41926;DHT22;27615;51.826;5.692;2022-11-21T15:13:43;8.20;99.90
41926;DHT22;27615;51.826;5.692;2022-11-21T15:16:11;8.20;99.90
41926;DHT22;27615;51.826;5.692;2022-11-21T15:18:39;8.30;99.90
41926;DHT22;27615;51.826;5.692;2022-11-21T15:21:05;8.30;99.90
41926;DHT22;27615;51.826;5.692;2022-11-21T15:23:35;8.30;99.90
41926;DHT22;27615;51.826;5.692;2022-11-21T15:26:04;8.20;99.90
41926;DHT22;27615;51.826;5.692;2022-11-21T15:28:30;8.20;99.90
41926;DHT22;27615;51.826;5.692;2022-11-21T15:34:03;8.20;99.90
41926;DHT22;27615;51.826;5.692;2022-11-21T15:36:30;8.20;99.90
41926;DHT22;27615;51.826;5.692;2022-11-21T15:41:32;8.20;99.90
41926;DHT22;27615;51.826;5.692;2022-11-21T15:46:27;8.20;99.90
41926;DHT22;27615;51.826;5.692;2022-11-21T15:48:57;8.20;99.90
41926;DHT22;27615;51.826;5.692;2022-11-21T15:51:25;8.20;99.90
41926;DHT22;27615;51.826;5.692;2022-11-21T15:53:51;8.20;99.90
41926;DHT22;27615;51.826;5.692;2022-11-21T15:56:18;8.20;99.90
41926;DHT22;27615;51.826;5.692;2022-11-21T15:58:44;8.20;99.90
41926;DHT22;27615;51.826;5.692;2022-11-21T16:01:24;8.10;99.90
41926;DHT22;27615;51.826;5.692;2022-11-21T16:03:51;8.20;99.90
41926;DHT22;27615;51.826;5.692;2022-11-21T16:06:18;8.20;99.90
41926;DHT22;27615;51.826;5.692;2022-11-21T16:08:44;8.10;99.90
41926;DHT22;27615;51.826;5.692;2022-11-21T16:11:26;8.10;99.90
41926;DHT22;27615;51.826;5.692;2022-11-21T16:13:53;8.20;99.90
41926;DHT22;27615;51.826;5.692;2022-11-21T16:16:20;8.10;99.90
41926;DHT22;27615;51.826;5.692;2022-11-21T16:18:46;8.00;99.90
41926;DHT22;27615;51.826;5.692;2022-11-21T16:21:12;8.00;99.90
41926;DHT22;27615;51.826;5.692;2022-11-21T16:23:38;8.00;99.90
41926;DHT22;27615;51.826;5.692;2022-11-21T16:26:05;8.00;99.90
41926;DHT22;27615;51.826;5.692;2022-11-21T16:28:30;8.00;99.90
41926;DHT22;27615;51.826;5.692;2022-11-21T16:30:57;8.00;99.90
41926;DHT22;27615;51.826;5.692;2022-11-21T16:33:23;8.00;99.90
41926;DHT22;27615;51.826;5.692;2022-11-21T16:35:49;8.00;99.90
41926;DHT22;27615;51.826;5.692;2022-11-21T16:38:20;8.00;99.90
41926;DHT22;27615;51.826;5.692;2022-11-21T16:41:01;8.00;99.90
41926;DHT22;27615;51.826;5.692;2022-11-21T16:43:28;7.90;99.90
41926;DHT22;27615;51.826;5.692;2022-11-21T16:45:55;7.90;99.90
41926;DHT22;27615;51.826;5.692;2022-11-21T16:48:22;7.80;99.90
41926;DHT22;27615;51.826;5.692;2022-11-21T16:50:48;7.80;99.90
41926;DHT22;27615;51.826;5.692;2022-11-21T16:53:14;7.80;99.90
41926;DHT22;27615;51.826;5.692;2022-11-21T16:55:40;7.80;99.90
41926;DHT22;27615;51.826;5.692;2022-11-21T16:58:06;7.80;99.90
41926;DHT22;27615;51.826;5.692;2022-11-21T17:00:31;7.80;99.90
41926;DHT22;27615;51.826;5.692;2022-11-21T17:02:57;7.80;99.90
41926;DHT22;27615;51.826;5.692;2022-11-21T17:05:23;7.80;99.90
41926;DHT22;27615;51.826;5.692;2022-11-21T17:07:49;7.70;99.90
41926;DHT22;27615;51.826;5.692;2022-11-21T17:10:15;7.80;99.90
41926;DHT22;27615;51.826;5.692;2022-11-21T17:12:42;7.80;99.90
41926;DHT22;27615;51.826;5.692;2022-11-21T17:15:12;7.80;99.90
41926;DHT22;27615;51.826;5.692;2022-11-21T17:17:39;7.80;99.90
41926;DHT22;27615;51.826;5.692;2022-11-21T17:20:06;7.80;99.90
41926;DHT22;27615;51.826;5.692;2022-11-21T17:22:33;7.90;99.90
41926;DHT22;27615;51.826;5.692;2022-11-21T17:24:58;7.80;99.90
41926;DHT22;27615;51.826;5.692;2022-11-21T17:27:24;7.70;99.90
41926;DHT22;27615;51.826;5.692;2022-11-21T17:29:50;7.70;99.90
41926;DHT22;27615;51.826;5.692;2022-11-21T17:32:16;7.60;99.90
41926;DHT22;27615;51.826;5.692;2022-11-21T17:34:41;7.60;99.90
41926;DHT22;27615;51.826;5.692;2022-11-21T17:37:07;7.60;99.90
41926;DHT22;27615;51.826;5.692;2022-11-21T17:39:33;7.60;99.90
41926;DHT22;27615;51.826;5.692;2022-11-21T17:41:59;7.60;99.90
41926;DHT22;27615;51.826;5.692;2022-11-21T17:44:25;7.60;99.90
41926;DHT22;27615;51.826;5.692;2022-11-21T17:46:51;7.60;99.90
41926;DHT22;27615;51.826;5.692;2022-11-21T17:49:16;7.50;99.90
41926;DHT22;27615;51.826;5.692;2022-11-21T17:51:42;7.60;99.90
41926;DHT22;27615;51.826;5.692;2022-11-21T17:54:07;7.50;99.90
41926;DHT22;27615;51.826;5.692;2022-11-21T17:56:35;7.50;99.90
41926;DHT22;27615;51.826;5.692;2022-11-21T17:59:01;7.50;99.90
41926;DHT22;27615;51.826;5.692;2022-11-21T18:01:28;7.60;99.90
41926;DHT22;27615;51.826;5.692;2022-11-21T18:03:56;7.50;99.90
41926;DHT22;27615;51.826;5.692;2022-11-21T18:06:23;7.50;99.90
41926;DHT22;27615;51.826;5.692;2022-11-21T18:08:49;7.50;99.90
41926;DHT22;27615;51.826;5.692;2022-11-21T18:11:19;7.50;99.90
41926;DHT22;27615;51.826;5.692;2022-11-21T18:13:45;7.50;99.90